Time;durP1;ratioP1;P1;durP2;ratioP2;P2;SDS_P1;SDS_P2;PMS_P1;PMS_P2;Temp;Humidity;BMP_temperature;BMP_pressure;BME280_temperature;BME280_humidity;BME280_pressure;Samples;Min_cycle;Max_cycle;Signal;HPM_P1;HPM_P2
2020/12/15 00:00:18;;;;;;;115.00;50.03;;;3.20;99.90;;;;;;5189811;28;20195;-71
2020/12/15 00:02:49;;;;;;;116.10;52.70;;;3.20;99.90;;;;;;5189233;28;20225;-73
2020/12/15 00:05:21;;;;;;;113.53;50.27;;;3.20;99.90;;;;;;5189218;28;20278;-72
2020/12/15 00:07:52;;;;;;;112.67;47.10;;;3.20;99.90;;;;;;5187337;28;20302;-73
2020/12/15 00:10:24;;;;;;;106.80;48.27;;;3.20;99.90;;;;;;5186782;28;20195;-73
2020/12/15 00:12:55;;;;;;;111.13;48.13;;;3.20;99.90;;;;;;5186339;28;20202;-74
2020/12/15 00:15:26;;;;;;;108.23;47.20;;;3.20;99.90;;;;;;5186818;28;20325;-74
2020/12/15 00:17:58;;;;;;;111.10;49.30;;;3.20;99.90;;;;;;5186517;28;20600;-73
2020/12/15 00:20:31;;;;;;;106.03;47.57;;;3.20;99.90;;;;;;5186674;28;20246;-73
2020/12/15 00:23:03;;;;;;;101.53;47.53;;;3.20;99.90;;;;;;5186572;28;20217;-74
2020/12/15 00:25:34;;;;;;;108.67;46.97;;;3.20;99.90;;;;;;5186993;28;20253;-73
2020/12/15 00:28:06;;;;;;;103.03;47.27;;;3.20;99.90;;;;;;5169884;28;20692;-73
2020/12/15 00:30:38;;;;;;;97.67;44.97;;;3.20;99.90;;;;;;5186726;28;20214;-72
2020/12/15 00:33:10;;;;;;;100.03;44.67;;;3.20;99.90;;;;;;5187135;28;20241;-73
2020/12/15 00:35:41;;;;;;;103.57;46.80;;;3.20;99.90;;;;;;5187113;28;20233;-74
2020/12/15 00:38:13;;;;;;;105.97;47.23;;;3.20;99.90;;;;;;5187215;28;20679;-73
2020/12/15 00:40:59;;;;;;;103.03;45.83;;;3.20;99.90;;;;;;5187134;28;20648;-73
2020/12/15 00:43:31;;;;;;;105.70;46.20;;;3.20;99.90;;;;;;5187141;28;20302;-72
2020/12/15 00:46:05;;;;;;;98.87;45.13;;;3.20;99.90;;;;;;5186696;28;20225;-73
2020/12/15 00:48:36;;;;;;;99.53;44.57;;;3.20;99.90;;;;;;5187591;28;20253;-72
2020/12/15 00:51:19;;;;;;;98.23;43.43;;;3.20;99.90;;;;;;5169684;28;20230;-72
2020/12/15 00:53:50;;;;;;;97.40;43.00;;;3.20;99.90;;;;;;5186748;28;20617;-72
2020/12/15 00:56:22;;;;;;;96.00;44.30;;;3.20;99.90;;;;;;5186295;28;20278;-74
2020/12/15 00:58:53;;;;;;;95.90;44.17;;;3.20;99.90;;;;;;5186633;28;20195;-72
2020/12/15 01:01:25;;;;;;;100.27;44.53;;;3.20;99.90;;;;;;5186400;28;20191;-73
2020/12/15 01:03:56;;;;;;;96.03;42.03;;;3.20;99.90;;;;;;5186558;28;20227;-72
2020/12/15 01:06:28;;;;;;;93.50;42.63;;;3.20;99.90;;;;;;5186771;28;20195;-70
2020/12/15 01:08:59;;;;;;;89.70;41.63;;;3.20;99.90;;;;;;5186683;28;20646;-72
2020/12/15 01:11:31;;;;;;;93.23;42.30;;;3.20;99.90;;;;;;5186847;28;20283;-73
2020/12/15 01:14:02;;;;;;;91.07;42.20;;;3.20;99.90;;;;;;5186924;28;20543;-72
2020/12/15 01:16:34;;;;;;;92.77;42.10;;;3.30;99.90;;;;;;5187210;28;20226;-72
2020/12/15 01:19:05;;;;;;;91.47;42.53;;;3.30;99.90;;;;;;5191795;28;20696;-72
2020/12/15 01:21:37;;;;;;;94.93;43.27;;;3.30;99.90;;;;;;5194791;28;20254;-73
2020/12/15 01:24:09;;;;;;;88.50;40.53;;;3.30;99.90;;;;;;5186531;28;20230;-72
2020/12/15 01:26:44;;;;;;;89.83;41.30;;;3.30;99.90;;;;;;5190639;28;20282;-73
2020/12/15 01:29:16;;;;;;;88.60;40.90;;;3.30;99.90;;;;;;5191249;28;20218;-72
2020/12/15 01:31:47;;;;;;;94.57;41.33;;;3.30;99.90;;;;;;5173955;28;20262;-73
2020/12/15 01:34:19;;;;;;;96.63;42.47;;;3.30;99.90;;;;;;5174177;28;20195;-73
2020/12/15 01:36:51;;;;;;;83.57;38.93;;;3.30;99.90;;;;;;5193133;28;20608;-72
2020/12/15 01:39:25;;;;;;;84.73;38.97;;;3.30;99.90;;;;;;5195904;28;20197;-72
2020/12/15 01:41:57;;;;;;;82.23;39.17;;;3.30;99.90;;;;;;5179016;28;20209;-73
2020/12/15 01:44:29;;;;;;;83.70;38.53;;;3.30;99.90;;;;;;5196310;28;20669;-72
2020/12/15 01:50:56;;;;;;;91.33;39.77;;;3.40;99.90;;;;;;5190373;28;20213;-71
2020/12/15 01:53:28;;;;;;;88.87;39.40;;;3.40;99.90;;;;;;5191456;28;20195;-72
2020/12/15 01:56:00;;;;;;;87.63;40.53;;;3.40;99.90;;;;;;5192039;28;20191;-75
2020/12/15 01:58:31;;;;;;;86.53;39.47;;;3.40;99.90;;;;;;5192668;28;20191;-74
2020/12/15 02:01:03;;;;;;;83.73;40.97;;;3.40;99.90;;;;;;5195838;28;20641;-73
2020/12/15 02:07:31;;;;;;;91.13;41.90;;;3.30;99.90;;;;;;5190145;28;20182;-72
2020/12/15 02:10:04;;;;;;;95.40;40.43;;;3.30;99.90;;;;;;5190650;28;20198;-71
2020/12/15 02:12:35;;;;;;;87.20;41.80;;;3.30;99.90;;;;;;5189538;28;20195;-72
2020/12/15 02:15:07;;;;;;;87.17;41.17;;;3.30;99.90;;;;;;5189539;28;20537;-72
2020/12/15 02:17:39;;;;;;;91.77;41.93;;;3.30;99.90;;;;;;5189416;28;20197;-74
2020/12/15 02:20:11;;;;;;;89.60;41.67;;;3.30;99.90;;;;;;5189038;28;20199;-72
2020/12/15 02:22:43;;;;;;;94.93;44.00;;;3.20;99.90;;;;;;5172600;28;20195;-72
2020/12/15 02:25:14;;;;;;;93.53;43.03;;;3.20;99.90;;;;;;5189047;28;20195;-72
2020/12/15 02:27:45;;;;;;;94.70;43.10;;;3.20;99.90;;;;;;5189654;28;20195;-71
2020/12/15 02:30:17;;;;;;;93.20;41.63;;;3.20;99.90;;;;;;5189317;28;20221;-72
2020/12/15 02:32:49;;;;;;;95.60;45.17;;;3.20;99.90;;;;;;5188777;28;20316;-73
2020/12/15 02:35:20;;;;;;;96.50;44.07;;;3.10;99.90;;;;;;5188452;28;20282;-72
2020/12/15 02:37:52;;;;;;;96.20;44.43;;;3.10;99.90;;;;;;5170915;28;20214;-74
2020/12/15 02:40:23;;;;;;;98.00;44.03;;;3.10;99.90;;;;;;5189303;28;20192;-72
2020/12/15 02:42:55;;;;;;;101.10;44.37;;;3.10;99.90;;;;;;5189241;28;20202;-72
2020/12/15 02:45:26;;;;;;;103.60;45.37;;;3.10;99.90;;;;;;5188783;28;20631;-71
2020/12/15 02:47:57;;;;;;;98.07;45.30;;;3.00;99.90;;;;;;5188569;28;20191;-72
2020/12/15 02:50:29;;;;;;;99.83;46.10;;;3.00;99.90;;;;;;5188621;28;20282;-72
2020/12/15 02:53:01;;;;;;;101.30;46.70;;;2.90;99.90;;;;;;5188165;28;20286;-72
2020/12/15 02:55:33;;;;;;;102.80;45.83;;;2.90;99.90;;;;;;5188505;28;20194;-72
2020/12/15 02:58:04;;;;;;;104.67;46.60;;;2.80;99.90;;;;;;5188970;28;20198;-73
2020/12/15 03:00:35;;;;;;;100.53;47.37;;;2.70;99.90;;;;;;5188858;28;20199;-73
2020/12/15 03:03:07;;;;;;;104.47;46.47;;;2.60;99.90;;;;;;5188213;28;20345;-72
2020/12/15 03:05:39;;;;;;;104.73;46.60;;;2.60;99.90;;;;;;5188669;28;20287;-72
2020/12/15 03:08:11;;;;;;;106.00;48.33;;;2.50;99.90;;;;;;5171419;28;20196;-71
2020/12/15 03:10:43;;;;;;;100.77;46.27;;;2.40;99.90;;;;;;5188464;28;20191;-72
2020/12/15 03:13:14;;;;;;;104.47;47.37;;;2.40;99.90;;;;;;5188255;28;20641;-72
2020/12/15 03:15:46;;;;;;;99.70;47.07;;;2.30;99.90;;;;;;5188603;28;20559;-73
2020/12/15 03:18:17;;;;;;;110.80;47.40;;;2.20;99.90;;;;;;5188801;28;20281;-73
2020/12/15 03:20:50;;;;;;;104.10;47.33;;;2.20;99.90;;;;;;5154725;28;20199;-72
2020/12/15 03:23:23;;;;;;;116.03;49.27;;;2.10;99.90;;;;;;5188305;28;20250;-72
2020/12/15 03:25:54;;;;;;;108.17;46.63;;;2.10;99.90;;;;;;5188545;28;20257;-73
2020/12/15 03:28:26;;;;;;;110.30;48.27;;;2.00;99.90;;;;;;5188185;28;20191;-74
2020/12/15 03:30:58;;;;;;;108.87;48.80;;;2.00;99.90;;;;;;5187828;28;20321;-73
2020/12/15 03:33:29;;;;;;;113.33;48.90;;;2.00;99.90;;;;;;5188140;28;20202;-72
2020/12/15 03:36:01;;;;;;;106.03;49.10;;;2.10;99.90;;;;;;5187810;28;20648;-73
2020/12/15 03:38:33;;;;;;;114.10;49.47;;;2.10;99.90;;;;;;5188659;28;20198;-72
2020/12/15 03:41:04;;;;;;;115.10;49.00;;;2.10;99.90;;;;;;5188226;28;20658;-73
2020/12/15 03:43:36;;;;;;;112.10;49.57;;;2.20;99.90;;;;;;5170309;28;20214;-71
2020/12/15 03:46:07;;;;;;;110.70;48.93;;;2.20;99.90;;;;;;5188172;28;20202;-72
2020/12/15 03:48:39;;;;;;;111.03;49.80;;;2.20;99.90;;;;;;5188327;28;20201;-72
2020/12/15 03:51:11;;;;;;;113.30;48.03;;;2.20;99.90;;;;;;5187768;28;20600;-73
2020/12/15 03:53:43;;;;;;;114.73;47.97;;;2.20;99.90;;;;;;5187725;28;20195;-73
2020/12/15 03:56:14;;;;;;;112.17;49.33;;;2.20;99.90;;;;;;5187800;28;20195;-72
2020/12/15 03:58:46;;;;;;;116.00;48.97;;;2.20;99.90;;;;;;5187456;28;20217;-71
2020/12/15 04:01:17;;;;;;;101.07;46.63;;;2.20;99.90;;;;;;5187448;28;20222;-73
2020/12/15 04:03:53;;;;;;;103.73;46.00;;;2.20;99.90;;;;;;5187318;28;20218;-73
2020/12/15 04:06:25;;;;;;;110.67;47.77;;;2.20;99.90;;;;;;5170838;28;20193;-74
2020/12/15 04:08:56;;;;;;;106.03;48.73;;;2.20;99.90;;;;;;5187494;28;20223;-73
2020/12/15 04:11:27;;;;;;;102.87;46.40;;;2.20;99.90;;;;;;5186973;28;20195;-72
2020/12/15 04:13:59;;;;;;;108.80;45.93;;;2.20;99.90;;;;;;5186899;28;20195;-73
2020/12/15 04:16:30;;;;;;;107.10;46.87;;;2.20;99.90;;;;;;5187802;28;20662;-74
2020/12/15 04:19:02;;;;;;;107.63;45.63;;;2.10;99.90;;;;;;5187465;28;20406;-73
2020/12/15 04:21:34;;;;;;;104.70;45.30;;;2.10;99.90;;;;;;5170441;28;20225;-73
2020/12/15 04:24:06;;;;;;;102.80;44.67;;;2.10;99.90;;;;;;5188708;28;20254;-72
2020/12/15 04:26:38;;;;;;;104.53;45.60;;;2.00;99.90;;;;;;5188739;28;20559;-71
2020/12/15 04:29:10;;;;;;;106.53;46.07;;;2.00;99.90;;;;;;5189150;28;20213;-70
2020/12/15 04:31:45;;;;;;;108.83;47.00;;;2.00;99.90;;;;;;5188609;28;20262;-72
2020/12/15 04:34:16;;;;;;;101.10;43.80;;;2.00;99.90;;;;;;5188926;28;20748;-71
2020/12/15 04:36:48;;;;;;;98.03;44.53;;;2.00;99.90;;;;;;5186982;28;20596;-73
2020/12/15 04:39:20;;;;;;;112.37;45.20;;;1.90;99.90;;;;;;5186865;28;20203;-72
2020/12/15 04:41:51;;;;;;;102.80;44.10;;;1.90;99.90;;;;;;5186791;28;20231;-72
2020/12/15 04:44:24;;;;;;;98.83;44.00;;;1.90;99.90;;;;;;5187404;28;20214;-73
2020/12/15 04:47:15;;;;;;;102.90;45.20;;;1.90;99.90;;;;;;5187230;28;20195;-72
2020/12/15 04:50:23;;;;;;;89.70;41.07;;;1.90;99.90;;;;;;5187566;28;20286;-71
2020/12/15 04:52:57;;;;;;;96.70;43.50;;;1.90;99.90;;;;;;5126696;29;20563;-72
2020/12/15 04:55:30;;;;;;;93.47;42.70;;;1.90;99.90;;;;;;5111376;29;20659;-72
2020/12/15 04:58:02;;;;;;;95.37;43.77;;;1.80;99.90;;;;;;5128647;29;20668;-73
2020/12/15 05:00:35;;;;;;;94.90;42.57;;;1.80;99.90;;;;;;5130906;28;20228;-71
2020/12/15 05:06:54;;;;;;;90.57;41.17;;;1.70;99.90;;;;;;5128246;28;20280;-74
2020/12/15 05:09:29;;;;;;;101.07;42.57;;;1.60;99.90;;;;;;5128476;29;20208;-73
2020/12/15 05:12:02;;;;;;;96.20;40.60;;;1.60;99.90;;;;;;5112129;29;20283;-73
2020/12/15 05:14:34;;;;;;;91.30;41.30;;;1.50;99.90;;;;;;5128383;29;20205;-73
2020/12/15 05:17:06;;;;;;;93.47;43.47;;;1.50;99.90;;;;;;5128210;29;20190;-73
2020/12/15 05:23:22;;;;;;;88.67;40.60;;;1.40;99.90;;;;;;5128075;29;20252;-75
2020/12/15 05:26:03;;;;;;;94.37;41.60;;;1.40;99.90;;;;;;5136619;28;20207;-76
2020/12/15 05:28:34;;;;;;;93.47;41.10;;;1.40;99.90;;;;;;5174206;28;20222;-73
2020/12/15 05:31:06;;;;;;;98.20;43.30;;;1.30;99.90;;;;;;5191232;28;20661;-74
2020/12/15 05:33:38;;;;;;;89.83;40.70;;;1.30;99.90;;;;;;5190830;28;20251;-73
2020/12/15 05:36:21;;;;;;;96.20;42.90;;;1.30;99.90;;;;;;5190051;28;20693;-73
2020/12/15 05:39:06;;;;;;;97.10;41.93;;;1.40;99.90;;;;;;5190711;28;20195;-75
2020/12/15 05:41:38;;;;;;;103.37;44.10;;;1.40;99.90;;;;;;5190328;28;20638;-74
2020/12/15 05:44:12;;;;;;;104.17;43.53;;;1.40;99.90;;;;;;5191740;28;20691;-74
2020/12/15 05:46:47;;;;;;;92.80;41.80;;;1.40;99.90;;;;;;5194534;28;20538;-73
2020/12/15 05:49:27;;;;;;;97.27;42.37;;;1.40;99.90;;;;;;5176251;28;20285;-71
2020/12/15 05:52:00;;;;;;;99.37;42.80;;;1.40;99.90;;;;;;5174563;28;20283;-74
2020/12/15 05:54:35;;;;;;;97.37;42.30;;;1.50;99.90;;;;;;5190440;28;20191;-74
2020/12/15 05:57:07;;;;;;;98.03;42.93;;;1.50;99.90;;;;;;5189792;28;20610;-73
2020/12/15 05:59:38;;;;;;;95.27;41.57;;;1.50;99.90;;;;;;5189929;28;20290;-73
2020/12/15 06:02:10;;;;;;;102.67;42.90;;;1.50;99.90;;;;;;5189988;28;20230;-73
2020/12/15 06:04:42;;;;;;;96.70;43.23;;;1.50;99.90;;;;;;5172310;28;20689;-71
2020/12/15 06:07:14;;;;;;;105.00;43.17;;;1.50;99.90;;;;;;5189761;28;20194;-73
2020/12/15 06:09:47;;;;;;;106.97;43.83;;;1.50;99.90;;;;;;5189360;28;20202;-72
2020/12/15 06:12:19;;;;;;;96.20;42.83;;;1.50;99.90;;;;;;5189147;28;20527;-73
2020/12/15 06:14:51;;;;;;;94.50;43.60;;;1.50;99.90;;;;;;5190372;28;20198;-72
2020/12/15 06:17:23;;;;;;;97.60;41.43;;;1.50;99.90;;;;;;5189996;28;20195;-72
2020/12/15 06:19:57;;;;;;;95.57;41.77;;;1.50;99.90;;;;;;5188835;28;20202;-72
2020/12/15 06:22:31;;;;;;;99.80;43.73;;;1.50;99.90;;;;;;5189204;28;20227;-73
2020/12/15 06:25:03;;;;;;;103.73;43.57;;;1.50;99.90;;;;;;5188976;28;20669;-70
2020/12/15 06:27:36;;;;;;;97.13;42.57;;;1.50;99.90;;;;;;5189313;28;20198;-70
2020/12/15 06:30:08;;;;;;;106.27;42.23;;;1.50;99.90;;;;;;5188838;28;20231;-74
2020/12/15 06:32:41;;;;;;;99.83;43.07;;;1.50;99.90;;;;;;5171359;28;20191;-72
2020/12/15 06:35:12;;;;;;;102.90;41.90;;;1.50;99.90;;;;;;5171227;28;20199;-72
2020/12/15 06:37:46;;;;;;;104.57;43.40;;;1.40;99.90;;;;;;5193505;28;20728;-72
2020/12/15 06:40:18;;;;;;;104.07;43.47;;;1.40;99.90;;;;;;5190288;28;20290;-73
2020/12/15 06:42:54;;;;;;;103.20;41.97;;;1.40;99.90;;;;;;5188694;28;20557;-72
2020/12/15 06:45:25;;;;;;;102.70;42.03;;;1.40;99.90;;;;;;5171648;28;20307;-72
2020/12/15 06:48:05;;;;;;;102.60;45.03;;;1.40;99.90;;;;;;5188305;28;20191;-73
2020/12/15 06:50:44;;;;;;;107.93;44.33;;;1.40;99.90;;;;;;5188784;28;20197;-73
2020/12/15 06:53:19;;;;;;;106.57;41.83;;;1.40;99.90;;;;;;5188632;28;20203;-73
2020/12/15 06:55:58;;;;;;;102.53;41.67;;;1.40;99.90;;;;;;5188789;28;20217;-73
2020/12/15 06:58:31;;;;;;;100.50;41.90;;;1.40;99.90;;;;;;5189068;28;20629;-72
2020/12/15 07:01:03;;;;;;;101.27;42.83;;;1.40;99.90;;;;;;5188518;28;20664;-71
2020/12/15 07:07:21;;;;;;;100.43;40.40;;;1.30;99.90;;;;;;5188479;28;20210;-75
2020/12/15 07:09:58;;;;;;;99.97;41.97;;;1.30;99.90;;;;;;5189035;28;20204;-74
2020/12/15 07:12:29;;;;;;;98.30;41.67;;;1.30;99.90;;;;;;5188329;28;20199;-73
2020/12/15 07:15:03;;;;;;;108.33;42.37;;;1.30;99.90;;;;;;5188512;28;20194;-74
2020/12/15 07:17:36;;;;;;;104.23;42.13;;;1.30;99.90;;;;;;5188624;28;20191;-74
2020/12/15 07:23:53;;;;;;;109.50;42.37;;;1.30;99.90;;;;;;5187465;28;20218;-73
2020/12/15 07:26:27;;;;;;;104.03;42.53;;;1.30;99.90;;;;;;5188708;28;20191;-73
2020/12/15 07:28:58;;;;;;;110.60;42.30;;;1.30;99.90;;;;;;5188543;28;20605;-74
2020/12/15 07:31:33;;;;;;;103.77;41.63;;;1.30;99.90;;;;;;5188519;28;20575;-75
2020/12/15 07:34:18;;;;;;;112.93;42.80;;;1.30;99.90;;;;;;5188301;28;20233;-75
2020/12/15 07:36:51;;;;;;;101.60;39.77;;;1.30;99.90;;;;;;5189108;28;20843;-75
2020/12/15 07:39:22;;;;;;;96.73;39.70;;;1.30;99.90;;;;;;5188667;28;20561;-72
2020/12/15 07:42:01;;;;;;;105.60;40.43;;;1.30;99.90;;;;;;5188993;28;20195;-74
2020/12/15 07:44:56;;;;;;;106.90;40.37;;;1.30;99.90;;;;;;5187695;28;20257;-73
2020/12/15 07:47:27;;;;;;;100.03;41.03;;;1.40;99.90;;;;;;5188335;28;20202;-73
2020/12/15 07:49:59;;;;;;;96.77;38.27;;;1.30;99.90;;;;;;5188446;28;20250;-74
2020/12/15 07:52:39;;;;;;;104.60;37.90;;;1.40;99.90;;;;;;5187961;28;20246;-75
2020/12/15 07:55:13;;;;;;;92.40;37.53;;;1.30;99.90;;;;;;5188430;28;20229;-73
2020/12/15 07:57:52;;;;;;;99.50;37.20;;;1.30;99.90;;;;;;5191428;28;20191;-74
2020/12/15 08:00:24;;;;;;;90.20;35.80;;;1.30;99.90;;;;;;5189605;28;20259;-76
2020/12/15 08:03:01;;;;;;;98.47;37.77;;;1.20;99.90;;;;;;5188662;28;20195;-74
2020/12/15 08:05:33;;;;;;;94.13;36.30;;;1.20;99.90;;;;;;5189798;28;20218;-72
2020/12/15 08:08:05;;;;;;;99.00;37.23;;;1.20;99.90;;;;;;5190298;28;20191;-73
2020/12/15 08:10:37;;;;;;;105.00;38.97;;;1.20;99.90;;;;;;5190375;28;20230;-75
2020/12/15 08:13:08;;;;;;;107.83;40.87;;;1.20;99.90;;;;;;5159267;28;20201;-73
2020/12/15 08:15:41;;;;;;;117.43;41.87;;;1.20;99.90;;;;;;5190705;28;20201;-74
2020/12/15 08:18:13;;;;;;;114.77;41.53;;;1.20;99.90;;;;;;5191329;28;20187;-73
2020/12/15 08:20:46;;;;;;;110.10;42.50;;;1.20;99.90;;;;;;5191615;28;20227;-73
2020/12/15 08:23:18;;;;;;;112.03;42.23;;;1.20;99.90;;;;;;5191751;28;20258;-72
2020/12/15 08:25:56;;;;;;;109.03;40.43;;;1.20;99.90;;;;;;5191003;28;20194;-74
2020/12/15 08:28:28;;;;;;;105.77;40.60;;;1.20;99.90;;;;;;5172751;28;20198;-71
2020/12/15 08:31:11;;;;;;;106.60;38.17;;;1.20;99.90;;;;;;5189929;28;20201;-73
2020/12/15 08:37:42;;;;;;;113.70;39.60;;;1.20;99.90;;;;;;5191047;28;20221;-73
2020/12/15 08:40:20;;;;;;;104.07;38.07;;;1.20;99.90;;;;;;5193503;28;20277;-76
2020/12/15 08:42:59;;;;;;;105.00;38.23;;;1.20;99.90;;;;;;5192864;28;20187;-74
2020/12/15 08:45:31;;;;;;;103.37;36.10;;;1.20;99.90;;;;;;5192594;28;20280;-73
2020/12/15 08:48:03;;;;;;;99.80;36.07;;;1.20;99.90;;;;;;5174914;28;20194;-74
2020/12/15 08:50:35;;;;;;;92.23;35.53;;;1.20;99.90;;;;;;5191904;28;20191;-77
2020/12/15 08:53:20;;;;;;;96.13;34.40;;;1.10;99.90;;;;;;5192587;28;20215;-73
2020/12/15 08:55:51;;;;;;;84.10;32.27;;;1.10;99.90;;;;;;5190966;28;20282;-72
2020/12/15 08:58:27;;;;;;;91.67;34.23;;;1.10;99.90;;;;;;5174218;28;20202;-74
2020/12/15 09:00:59;;;;;;;79.27;30.80;;;1.10;99.90;;;;;;5192899;28;20533;-74
2020/12/15 09:03:35;;;;;;;91.57;32.83;;;1.20;99.90;;;;;;5175370;28;20195;-72
2020/12/15 09:06:06;;;;;;;84.57;29.30;;;1.20;99.90;;;;;;5190431;28;20199;-74
2020/12/15 09:08:50;;;;;;;81.33;31.33;;;1.10;99.90;;;;;;5191370;28;20205;-74
2020/12/15 09:11:22;;;;;;;86.70;29.43;;;1.10;99.90;;;;;;5191615;28;20195;-75
2020/12/15 09:13:55;;;;;;;80.37;29.63;;;1.10;99.90;;;;;;5190999;28;20226;-72
2020/12/15 09:16:33;;;;;;;87.10;30.87;;;1.10;99.90;;;;;;5190439;28;20195;-73
2020/12/15 09:22:51;;;;;;;77.27;28.83;;;1.10;99.90;;;;;;5190123;28;20169;-72
2020/12/15 09:25:24;;;;;;;86.63;30.83;;;1.20;99.90;;;;;;5190511;28;20215;-74
2020/12/15 09:27:55;;;;;;;80.70;29.70;;;1.10;99.90;;;;;;5191764;28;20237;-75
2020/12/15 09:30:27;;;;;;;83.77;31.10;;;1.10;99.90;;;;;;5198371;28;20697;-72
2020/12/15 09:33:03;;;;;;;77.53;29.97;;;1.10;99.90;;;;;;5179169;28;20638;-74
2020/12/15 09:40:11;;;;;;;83.67;30.33;;;1.20;99.90;;;;;;5149934;28;20191;-72
2020/12/15 09:42:44;;;;;;;80.93;29.07;;;1.20;99.90;;;;;;5149551;28;20644;-74
2020/12/15 09:45:15;;;;;;;78.40;28.47;;;1.20;99.90;;;;;;5149609;28;20220;-73
2020/12/15 09:47:47;;;;;;;80.13;28.60;;;1.20;99.90;;;;;;5148796;28;20196;-74
2020/12/15 09:54:14;;;;;;;71.63;26.73;;;1.20;99.90;;;;;;5152370;28;20216;-76
2020/12/15 09:56:46;;;;;;;77.73;29.70;;;1.20;99.90;;;;;;5151609;28;20202;-74
2020/12/15 09:59:17;;;;;;;76.10;28.07;;;1.20;99.90;;;;;;5150751;28;20207;-74
2020/12/15 10:01:48;;;;;;;76.57;28.50;;;1.20;99.90;;;;;;5152261;28;20567;-74
2020/12/15 10:04:20;;;;;;;79.13;28.33;;;1.20;99.90;;;;;;5149447;28;20307;-73
2020/12/15 10:06:52;;;;;;;77.17;28.53;;;1.20;99.90;;;;;;5150627;28;20204;-73
2020/12/15 10:09:23;;;;;;;74.00;30.63;;;1.20;99.90;;;;;;5149939;28;20202;-73
2020/12/15 10:11:55;;;;;;;87.97;30.90;;;1.20;99.90;;;;;;5151099;28;20317;-74
2020/12/15 10:14:26;;;;;;;81.67;31.57;;;1.20;99.90;;;;;;5149859;28;20264;-74
2020/12/15 10:16:58;;;;;;;74.10;30.37;;;1.30;99.90;;;;;;5149510;28;20197;-72
2020/12/15 10:19:29;;;;;;;80.00;31.43;;;1.30;99.90;;;;;;5149936;28;20204;-73
2020/12/15 10:22:01;;;;;;;79.00;29.13;;;1.30;99.90;;;;;;5149725;28;20227;-74
2020/12/15 10:24:34;;;;;;;79.83;30.67;;;1.30;99.90;;;;;;5150636;28;20255;-73
2020/12/15 10:27:06;;;;;;;75.73;29.07;;;1.30;99.90;;;;;;5150078;28;20203;-74
2020/12/15 10:29:38;;;;;;;71.73;29.00;;;1.30;99.90;;;;;;5150219;28;20204;-74
2020/12/15 10:32:09;;;;;;;76.87;29.70;;;1.30;99.90;;;;;;5149868;28;20719;-74
2020/12/15 10:34:41;;;;;;;73.10;27.37;;;1.30;99.90;;;;;;5149755;28;20622;-73
2020/12/15 10:37:13;;;;;;;71.07;27.90;;;1.20;99.90;;;;;;5151624;28;20564;-73
2020/12/15 10:39:45;;;;;;;70.37;26.93;;;1.20;99.90;;;;;;5191101;28;20230;-72
2020/12/15 10:42:16;;;;;;;69.83;27.20;;;1.30;99.90;;;;;;5189918;28;20199;-70
2020/12/15 10:44:48;;;;;;;70.33;27.13;;;1.20;99.90;;;;;;5190040;28;20233;-75
2020/12/15 10:47:19;;;;;;;70.87;27.20;;;1.20;99.90;;;;;;5190961;28;20619;-72
2020/12/15 10:49:54;;;;;;;75.83;28.10;;;1.20;99.90;;;;;;5189985;28;20649;-72
2020/12/15 10:52:25;;;;;;;76.40;29.30;;;1.20;99.90;;;;;;5190127;28;20183;-73
2020/12/15 10:54:56;;;;;;;74.60;29.00;;;1.20;99.90;;;;;;5188911;28;20191;-76
2020/12/15 10:57:28;;;;;;;80.30;29.57;;;1.30;99.90;;;;;;5187383;28;20291;-74
2020/12/15 10:59:59;;;;;;;75.90;28.60;;;1.30;99.90;;;;;;5189656;28;20560;-77
2020/12/15 11:02:30;;;;;;;71.10;28.20;;;1.20;99.90;;;;;;5190375;28;20199;-72
2020/12/15 11:05:05;;;;;;;77.03;28.00;;;1.20;99.90;;;;;;5187809;28;20225;-72
2020/12/15 11:07:36;;;;;;;68.67;28.50;;;1.20;99.90;;;;;;5188940;28;20552;-74
2020/12/15 11:10:08;;;;;;;81.43;29.67;;;1.20;99.90;;;;;;5189459;28;20289;-75
2020/12/15 11:12:40;;;;;;;79.60;28.60;;;1.20;99.90;;;;;;5188856;28;20223;-72
2020/12/15 11:15:12;;;;;;;79.10;29.40;;;1.20;99.90;;;;;;5189636;28;20549;-78
2020/12/15 11:17:43;;;;;;;85.10;29.97;;;1.20;99.90;;;;;;5191365;28;20211;-74
2020/12/15 11:20:15;;;;;;;81.30;30.33;;;1.30;99.90;;;;;;5188282;28;20240;-72
2020/12/15 11:22:46;;;;;;;78.23;29.53;;;1.30;99.90;;;;;;5188445;28;20237;-74
2020/12/15 11:25:18;;;;;;;94.57;31.63;;;1.30;99.90;;;;;;5171058;28;20593;-71
2020/12/15 11:27:49;;;;;;;82.57;30.30;;;1.30;99.90;;;;;;5188281;28;20618;-73
2020/12/15 11:30:21;;;;;;;84.50;30.70;;;1.30;99.90;;;;;;5188647;28;20549;-72
2020/12/15 11:32:52;;;;;;;85.80;31.53;;;1.30;99.90;;;;;;5190154;28;20191;-74
2020/12/15 11:35:24;;;;;;;90.20;30.90;;;1.40;99.90;;;;;;5190221;28;20646;-75
2020/12/15 11:37:55;;;;;;;92.13;32.00;;;1.40;99.90;;;;;;5189585;28;20239;-74
2020/12/15 11:40:30;;;;;;;96.87;34.33;;;1.40;99.90;;;;;;5172477;28;20238;-73
2020/12/15 11:43:01;;;;;;;94.13;33.03;;;1.40;99.90;;;;;;5190671;28;20187;-70
2020/12/15 11:45:34;;;;;;;94.37;34.43;;;1.40;99.90;;;;;;5191469;28;20227;-77
2020/12/15 11:48:06;;;;;;;99.00;35.33;;;1.40;99.90;;;;;;5190605;28;20622;-73
2020/12/15 11:50:40;;;;;;;98.67;33.67;;;1.40;99.90;;;;;;5188588;28;20198;-75
2020/12/15 11:53:12;;;;;;;100.00;33.00;;;1.40;99.90;;;;;;5190683;28;20195;-73
2020/12/15 11:55:44;;;;;;;88.33;32.17;;;1.30;99.90;;;;;;5188210;28;20191;-73
2020/12/15 11:58:16;;;;;;;98.33;33.10;;;1.30;99.90;;;;;;5170645;28;20207;-74
2020/12/15 12:00:47;;;;;;;97.17;31.90;;;1.30;99.90;;;;;;5186973;28;20198;-73
2020/12/15 12:03:19;;;;;;;93.67;32.33;;;1.20;99.90;;;;;;5187894;28;20201;-74
2020/12/15 12:05:50;;;;;;;100.17;33.80;;;1.20;99.90;;;;;;5187329;28;20314;-72
2020/12/15 12:08:22;;;;;;;98.13;31.87;;;1.20;99.90;;;;;;5184831;28;20187;-71
2020/12/15 12:10:53;;;;;;;98.50;33.83;;;1.20;99.90;;;;;;5187449;28;20668;-72
2020/12/15 12:13:25;;;;;;;99.13;35.03;;;1.20;99.90;;;;;;5188634;28;20195;-75
2020/12/15 12:16:02;;;;;;;91.53;32.93;;;1.20;99.90;;;;;;5158115;28;20195;-70
2020/12/15 12:18:37;;;;;;;89.30;33.00;;;1.20;99.90;;;;;;5121623;28;20293;-74
2020/12/15 12:21:09;;;;;;;91.40;31.87;;;1.20;99.90;;;;;;5186725;28;20203;-71
2020/12/15 12:23:41;;;;;;;82.27;30.87;;;1.20;99.90;;;;;;5185171;28;20194;-71
2020/12/15 12:26:16;;;;;;;96.47;31.90;;;1.20;99.90;;;;;;5186577;28;20218;-70
2020/12/15 12:28:47;;;;;;;96.07;34.07;;;1.20;99.90;;;;;;5187118;28;20557;-71
2020/12/15 12:31:19;;;;;;;97.90;34.97;;;1.20;99.90;;;;;;5185811;28;20199;-74
2020/12/15 12:33:51;;;;;;;107.17;35.23;;;1.30;99.90;;;;;;5187305;28;20195;-72
2020/12/15 12:36:22;;;;;;;98.47;34.10;;;1.20;99.90;;;;;;5186821;28;20527;-70
2020/12/15 12:38:56;;;;;;;95.20;34.27;;;1.30;99.90;;;;;;5186338;28;20662;-72
2020/12/15 12:41:28;;;;;;;109.80;35.67;;;1.30;99.90;;;;;;5187216;28;20226;-69
2020/12/15 12:44:16;;;;;;;108.33;34.97;;;1.30;99.90;;;;;;5186991;28;20215;-75
2020/12/15 12:46:49;;;;;;;103.30;31.83;;;1.20;99.90;;;;;;5186815;28;20195;-76
2020/12/15 12:49:20;;;;;;;101.90;35.03;;;1.30;99.90;;;;;;5186638;28;20282;-72
2020/12/15 12:51:52;;;;;;;111.53;38.73;;;1.20;99.90;;;;;;5186619;28;20191;-72
2020/12/15 12:54:24;;;;;;;102.63;36.63;;;1.20;99.90;;;;;;5188443;28;20225;-70
2020/12/15 12:56:55;;;;;;;105.33;37.40;;;1.20;99.90;;;;;;5187391;28;20206;-80
2020/12/15 12:59:27;;;;;;;95.60;33.60;;;1.20;99.90;;;;;;5187609;28;20199;-71
2020/12/15 13:02:04;;;;;;;101.73;34.40;;;1.20;99.90;;;;;;5187120;28;20221;-72
2020/12/15 13:04:36;;;;;;;98.90;34.70;;;1.20;99.90;;;;;;5186547;28;20214;-70
2020/12/15 13:07:07;;;;;;;92.97;33.70;;;1.20;99.90;;;;;;5187123;28;20548;-72
2020/12/15 13:09:43;;;;;;;103.60;34.63;;;1.20;99.90;;;;;;5187674;28;20543;-70
2020/12/15 13:12:15;;;;;;;104.43;35.27;;;1.20;99.90;;;;;;5187352;28;20559;-71
2020/12/15 13:14:47;;;;;;;102.57;36.27;;;1.20;99.90;;;;;;5186479;28;20202;-72
2020/12/15 13:17:19;;;;;;;108.03;36.23;;;1.20;99.90;;;;;;5186935;28;20197;-72
2020/12/15 13:19:52;;;;;;;112.50;36.97;;;1.20;99.90;;;;;;5170037;28;20657;-70
2020/12/15 13:22:25;;;;;;;112.57;37.40;;;1.20;99.90;;;;;;5193798;28;20688;-72
2020/12/15 13:24:58;;;;;;;108.60;36.07;;;1.20;99.90;;;;;;5192440;28;20223;-74
2020/12/15 13:27:29;;;;;;;106.47;36.10;;;1.10;99.90;;;;;;5175159;28;20210;-70
2020/12/15 13:30:01;;;;;;;106.80;35.80;;;1.10;99.90;;;;;;5174056;28;20249;-70
2020/12/15 13:32:33;;;;;;;111.03;36.77;;;1.10;99.90;;;;;;5175222;28;20254;-71
2020/12/15 13:35:05;;;;;;;112.53;36.83;;;1.10;99.90;;;;;;5193416;28;20638;-72
2020/12/15 13:37:37;;;;;;;104.33;34.97;;;1.10;99.90;;;;;;5193041;28;20551;-70
2020/12/15 13:40:09;;;;;;;111.30;36.40;;;1.10;99.90;;;;;;5174012;28;20209;-70